Time,TemperatureF,DewpointF,PressureIn,WindDirection,WindDirectionDegrees,WindSpeedMPH,WindSpeedGustMPH,Humidity,HourlyPrecipIn,Conditions,Clouds,dailyrainin,SoftwareType,DateUTC
2013-05-05 00:02:00,49.6,25.0,29.77,SE,131,9.0,17.0,38,0.00,,,0.00,meteohub,2013-05-05 07:02:00,
2013-05-05 00:07:00,49.8,23.9,29.76,SSE,168,4.0,17.0,36,0.00,,,0.00,meteohub,2013-05-05 07:07:00,
2013-05-05 00:12:00,49.6,23.7,29.76,SSE,148,5.0,16.0,36,0.00,,,0.00,meteohub,2013-05-05 07:12:00,
2013-05-05 00:17:00,49.6,23.7,29.76,WSW,254,4.0,16.0,36,0.00,,,0.00,meteohub,2013-05-05 07:17:00,
2013-05-05 00:22:00,49.5,23.5,29.77,ESE,117,6.0,15.0,36,0.00,,,0.00,meteohub,2013-05-05 07:22:00,
2013-05-05 00:27:00,49.5,24.3,29.77,East,98,10.0,17.0,37,0.00,,,0.00,meteohub,2013-05-05 07:27:00,
2013-05-05 00:32:00,49.5,23.5,29.76,East,97,5.0,17.0,36,0.00,,,0.00,meteohub,2013-05-05 07:32:00,
2013-05-05 00:37:00,49.5,23.5,29.77,East,96,9.0,16.0,36,0.00,,,0.00,meteohub,2013-05-05 07:37:00,
2013-05-05 00:42:00,49.5,20.8,29.77,SW,228,2.0,14.0,32,0.00,,,0.00,meteohub,2013-05-05 07:42:00,
2013-05-05 00:47:00,49.6,20.3,29.77,SW,226,10.0,16.0,31,0.00,,,0.00,meteohub,2013-05-05 07:47:00,
2013-05-05 00:52:00,49.8,17.2,29.77,South,176,2.0,16.0,27,0.00,,,0.00,meteohub,2013-05-05 07:52:00,
2013-05-05 00:57:00,49.8,18.9,29.77,SSE,155,6.0,18.0,29,0.00,,,0.00,meteohub,2013-05-05 07:57:00,
2013-05-05 01:02:00,50.2,16.5,29.77,SW,236,4.0,18.0,26,0.00,,,0.00,meteohub,2013-05-05 08:02:00,
2013-05-05 01:07:00,50.4,15.8,29.77,South,174,8.0,18.0,25,0.00,,,0.00,meteohub,2013-05-05 08:07:00,
2013-05-05 01:12:00,50.2,16.5,29.77,SSW,203,5.0,18.0,26,0.00,,,0.00,meteohub,2013-05-05 08:12:00,
2013-05-05 01:17:00,50.2,16.5,29.76,WSW,242,4.0,18.0,26,0.00,,,0.00,meteohub,2013-05-05 08:17:00,
2013-05-05 01:22:00,50.2,15.6,29.77,South,188,2.0,17.0,25,0.00,,,0.00,meteohub,2013-05-05 08:22:00,
2013-05-05 01:27:00,50.4,14.0,29.77,South,170,4.0,16.0,23,0.00,,,0.00,meteohub,2013-05-05 08:27:00,
2013-05-05 01:32:00,50.4,14.0,29.77,South,181,10.0,16.0,23,0.00,,,0.00,meteohub,2013-05-05 08:32:00,
2013-05-05 01:37:00,50.7,13.3,29.76,South,173,5.0,16.0,22,0.00,,,0.00,meteohub,2013-05-05 08:37:00,
2013-05-05 01:42:00,50.5,12.0,29.76,ESE,103,3.0,17.0,21,0.00,,,0.00,meteohub,2013-05-05 08:42:00,
2013-05-05 01:47:00,50.7,14.2,29.76,ESE,115,3.0,17.0,23,0.00,,,0.00,meteohub,2013-05-05 08:47:00,
2013-05-05 01:52:00,50.7,16.2,29.76,SSW,212,7.0,18.0,25,0.00,,,0.00,meteohub,2013-05-05 08:52:00,
2013-05-05 01:57:00,50.4,17.6,29.76,East,101,6.0,18.0,27,0.00,,,0.00,meteohub,2013-05-05 08:57:00,
2013-05-05 02:02:00,50.2,19.2,29.76,SE,131,5.0,18.0,29,0.00,,,0.00,meteohub,2013-05-05 09:02:00,
2013-05-05 02:07:00,50.2,17.4,29.76,SSE,158,4.0,18.0,27,0.00,,,0.00,meteohub,2013-05-05 09:07:00,
2013-05-05 02:12:00,50.4,12.9,29.76,SSE,167,4.0,18.0,22,0.00,,,0.00,meteohub,2013-05-05 09:12:00,
2013-05-05 02:17:00,50.4,18.5,29.76,SSW,207,4.0,18.0,28,0.00,,,0.00,meteohub,2013-05-05 09:17:00,
2013-05-05 02:22:00,50.2,19.2,29.76,SSE,158,3.0,16.0,29,0.00,,,0.00,meteohub,2013-05-05 09:22:00,
2013-05-05 02:27:00,50.0,18.1,29.75,ESE,104,5.0,16.0,28,0.00,,,0.00,meteohub,2013-05-05 09:27:00,
2013-05-05 02:32:00,49.8,18.9,29.75,ESE,110,8.0,16.0,29,0.00,,,0.00,meteohub,2013-05-05 09:32:00,
2013-05-05 02:37:00,49.6,21.0,29.75,East,89,5.0,16.0,32,0.00,,,0.00,meteohub,2013-05-05 09:37:00,
2013-05-05 02:42:00,49.5,20.8,29.76,SSW,193,5.0,15.0,32,0.00,,,0.00,meteohub,2013-05-05 09:42:00,
2013-05-05 02:47:00,49.3,20.7,29.75,SSE,166,12.0,15.0,32,0.00,,,0.00,meteohub,2013-05-05 09:47:00,
2013-05-05 02:52:00,49.3,21.4,29.75,WSW,240,3.0,18.0,33,0.00,,,0.00,meteohub,2013-05-05 09:52:00,
2013-05-05 02:57:00,49.3,17.6,29.75,WSW,243,7.0,18.0,28,0.00,,,0.00,meteohub,2013-05-05 09:57:00,
2013-05-05 03:02:00,49.3,22.1,29.75,South,187,3.0,19.0,34,0.00,,,0.00,meteohub,2013-05-05 10:02:00,
2013-05-05 03:07:00,48.9,23.7,29.75,SW,221,4.0,19.0,37,0.00,,,0.00,meteohub,2013-05-05 10:07:00,
2013-05-05 03:12:00,48.7,21.6,29.75,East,79,6.0,16.0,34,0.00,,,0.00,meteohub,2013-05-05 10:12:00,
2013-05-05 03:17:00,48.7,21.6,29.74,ESE,113,4.0,15.0,34,0.00,,,0.00,meteohub,2013-05-05 10:17:00,
2013-05-05 03:22:00,49.3,19.2,29.74,East,90,5.0,15.0,30,0.00,,,0.00,meteohub,2013-05-05 10:22:00,
2013-05-05 03:27:00,49.8,19.6,29.75,SW,228,6.0,18.0,30,0.00,,,0.00,meteohub,2013-05-05 10:27:00,
2013-05-05 03:32:00,50.4,16.7,29.75,SSW,192,2.0,18.0,26,0.00,,,0.00,meteohub,2013-05-05 10:32:00,
2013-05-05 03:37:00,50.5,17.8,29.75,East,96,7.0,21.0,27,0.00,,,0.00,meteohub,2013-05-05 10:37:00,
2013-05-05 03:42:00,50.4,15.8,29.75,East,100,9.0,21.0,25,0.00,,,0.00,meteohub,2013-05-05 10:42:00,
2013-05-05 03:47:00,50.5,17.8,29.75,SE,134,10.0,21.0,27,0.00,,,0.00,meteohub,2013-05-05 10:47:00,
2013-05-05 03:52:00,50.5,20.3,29.75,SW,217,8.0,19.0,30,0.00,,,0.00,meteohub,2013-05-05 10:52:00,
2013-05-05 03:57:00,50.2,19.9,29.75,SW,214,2.0,16.0,30,0.00,,,0.00,meteohub,2013-05-05 10:57:00,
2013-05-05 04:02:00,49.8,18.0,29.75,SW,221,7.0,16.0,28,0.00,,,0.00,meteohub,2013-05-05 11:02:00,
2013-05-05 04:07:00,49.8,18.0,29.75,ESE,109,8.0,15.0,28,0.00,,,0.00,meteohub,2013-05-05 11:07:00,
2013-05-05 04:12:00,49.8,20.3,29.76,SE,135,8.0,15.0,31,0.00,,,0.00,meteohub,2013-05-05 11:12:00,
2013-05-05 04:17:00,49.5,21.6,29.76,SW,217,3.0,14.0,33,0.00,,,0.00,meteohub,2013-05-05 11:17:00,
2013-05-05 04:22:00,49.3,22.1,29.76,SSW,194,3.0,16.0,34,0.00,,,0.00,meteohub,2013-05-05 11:22:00,
2013-05-05 04:27:00,48.9,21.7,29.75,SE,132,4.0,16.0,34,0.00,,,0.00,meteohub,2013-05-05 11:27:00,
2013-05-05 04:32:00,48.9,23.2,29.76,ESE,103,12.0,18.0,36,0.00,,,0.00,meteohub,2013-05-05 11:32:00,
2013-05-05 04:37:00,48.9,24.4,29.76,East,81,6.0,18.0,38,0.00,,,0.00,meteohub,2013-05-05 11:37:00,
2013-05-05 04:42:00,48.7,23.5,29.76,SE,128,2.0,18.0,37,0.00,,,0.00,meteohub,2013-05-05 11:42:00,
2013-05-05 04:47:00,48.7,22.3,29.75,SSW,200,2.0,17.0,35,0.00,,,0.00,meteohub,2013-05-05 11:47:00,
2013-05-05 04:52:00,48.6,22.8,29.75,ESE,117,4.0,12.0,36,0.00,,,0.00,meteohub,2013-05-05 11:52:00,
2013-05-05 04:57:00,48.6,23.5,29.75,ESE,107,7.0,12.0,37,0.00,,,0.00,meteohub,2013-05-05 11:57:00,
2013-05-05 05:02:00,48.7,22.3,29.75,South,169,3.0,16.0,35,0.00,,,0.00,meteohub,2013-05-05 12:02:00,
2013-05-05 05:07:00,48.7,20.8,29.75,SW,222,4.0,16.0,33,0.00,,,0.00,meteohub,2013-05-05 12:07:00,
2013-05-05 05:12:00,48.7,21.6,29.75,SSE,160,2.0,16.0,34,0.00,,,0.00,meteohub,2013-05-05 12:12:00,
2013-05-05 05:17:00,48.6,23.5,29.75,South,177,2.0,15.0,37,0.00,,,0.00,meteohub,2013-05-05 12:17:00,
2013-05-05 05:22:00,48.4,23.4,29.75,SE,139,8.0,15.0,37,0.00,,,0.00,meteohub,2013-05-05 12:22:00,
2013-05-05 05:27:00,48.4,23.4,29.75,SSW,203,1.0,16.0,37,0.00,,,0.00,meteohub,2013-05-05 12:27:00,
2013-05-05 05:32:00,48.0,24.3,29.76,ESE,120,8.0,16.0,39,0.00,,,0.00,meteohub,2013-05-05 12:32:00,
2013-05-05 05:37:00,47.1,28.4,29.76,East,81,5.0,14.0,48,0.00,,,0.00,meteohub,2013-05-05 12:37:00,
2013-05-05 05:42:00,46.8,26.1,29.76,ESE,103,5.0,12.0,44,0.00,,,0.00,meteohub,2013-05-05 12:42:00,
2013-05-05 05:47:00,47.1,24.1,29.76,SW,228,5.0,12.0,40,0.00,,,0.00,meteohub,2013-05-05 12:47:00,
2013-05-05 05:52:00,47.5,22.5,29.77,ESE,106,13.0,13.0,37,0.00,,,0.00,meteohub,2013-05-05 12:52:00,
2013-05-05 05:57:00,47.7,23.4,29.78,ESE,115,4.0,14.0,38,0.00,,,0.00,meteohub,2013-05-05 12:57:00,
2013-05-05 06:02:00,47.7,23.4,29.78,ESE,103,9.0,18.0,38,0.00,,,0.00,meteohub,2013-05-05 13:02:00,
2013-05-05 06:07:00,47.8,21.6,29.78,ESE,103,7.0,18.0,35,0.00,,,0.00,meteohub,2013-05-05 13:07:00,
2013-05-05 06:12:00,48.2,21.7,29.78,SW,214,1.0,14.0,35,0.00,,,0.00,meteohub,2013-05-05 13:12:00,
2013-05-05 06:17:00,48.4,20.7,29.78,ESE,107,2.0,14.0,33,0.00,,,0.00,meteohub,2013-05-05 13:17:00,
2013-05-05 06:22:00,48.6,21.4,29.78,SSW,193,5.0,11.0,34,0.00,,,0.00,meteohub,2013-05-05 13:22:00,
2013-05-05 06:27:00,48.2,24.4,29.77,SW,219,1.0,8.0,39,0.00,,,0.00,meteohub,2013-05-05 13:27:00,
2013-05-05 06:32:00,47.5,28.2,29.77,WSW,250,1.0,13.0,47,0.00,,,0.00,meteohub,2013-05-05 13:32:00,
2013-05-05 06:37:00,46.2,30.9,29.77,NE,53,3.0,16.0,55,0.00,,,0.00,meteohub,2013-05-05 13:37:00,
2013-05-05 06:42:00,45.1,31.6,29.78,SE,145,2.0,16.0,59,0.00,,,0.00,meteohub,2013-05-05 13:42:00,
2013-05-05 06:47:00,44.8,30.9,29.78,SSW,200,3.0,16.0,58,0.00,,,0.00,meteohub,2013-05-05 13:47:00,
2013-05-05 06:52:00,44.8,32.2,29.78,WSW,255,2.0,11.0,61,0.00,,,0.00,meteohub,2013-05-05 13:52:00,
2013-05-05 06:57:00,44.1,32.4,29.78,WNW,296,2.0,11.0,63,0.00,,,0.00,meteohub,2013-05-05 13:57:00,
2013-05-05 07:02:00,43.9,30.9,29.78,South,188,7.0,13.0,60,0.00,,,0.00,meteohub,2013-05-05 14:02:00,
2013-05-05 07:07:00,43.5,33.3,29.78,ESE,105,6.0,21.0,67,0.00,,,0.00,meteohub,2013-05-05 14:07:00,
2013-05-05 07:12:00,43.5,30.6,29.78,ENE,67,15.0,21.0,60,0.00,,,0.00,meteohub,2013-05-05 14:12:00,
2013-05-05 07:17:00,44.8,26.8,29.78,ESE,102,14.0,21.0,49,0.00,,,0.00,meteohub,2013-05-05 14:17:00,
2013-05-05 07:22:00,45.9,26.2,29.78,SE,127,11.0,21.0,46,0.00,,,0.00,meteohub,2013-05-05 14:22:00,
2013-05-05 07:27:00,46.9,22.1,29.78,ESE,110,8.0,21.0,37,0.00,,,0.00,meteohub,2013-05-05 14:27:00,
2013-05-05 07:32:00,47.1,23.4,29.78,ENE,69,12.0,25.0,39,0.00,,,0.00,meteohub,2013-05-05 14:32:00,
2013-05-05 07:37:00,46.9,25.0,29.78,East,98,10.0,25.0,42,0.00,,,0.00,meteohub,2013-05-05 14:37:00,
2013-05-05 07:42:00,45.9,32.7,29.78,SE,141,3.0,25.0,60,0.00,,,0.00,meteohub,2013-05-05 14:42:00,
2013-05-05 07:47:00,43.9,35.4,29.78,ESE,110,5.0,23.0,72,0.00,,,0.00,meteohub,2013-05-05 14:47:00,
2013-05-05 07:52:00,42.3,36.5,29.79,SE,136,5.0,23.0,80,0.00,,,0.00,meteohub,2013-05-05 14:52:00,
2013-05-05 07:57:00,40.8,36.7,29.79,South,170,6.0,13.0,85,0.00,,,0.00,meteohub,2013-05-05 14:57:00,
2013-05-05 08:02:00,40.5,37.2,29.79,ESE,103,14.0,15.0,88,0.00,,,0.00,meteohub,2013-05-05 15:02:00,
2013-05-05 08:07:00,39.9,37.2,29.80,SE,132,3.0,17.0,90,0.00,,,0.00,meteohub,2013-05-05 15:07:00,
2013-05-05 08:12:00,39.7,37.4,29.80,SSE,163,16.0,17.0,91,0.00,,,0.00,meteohub,2013-05-05 15:12:00,
2013-05-05 08:17:00,39.6,37.4,29.79,NE,53,3.0,17.0,92,0.00,,,0.00,meteohub,2013-05-05 15:17:00,
2013-05-05 08:22:00,39.6,37.8,29.80,SSE,157,5.0,17.0,93,0.00,,,0.00,meteohub,2013-05-05 15:22:00,
2013-05-05 08:27:00,39.6,37.8,29.80,SW,219,3.0,17.0,93,0.00,,,0.00,meteohub,2013-05-05 15:27:00,
2013-05-05 08:32:00,39.7,38.1,29.81,ESE,113,6.0,14.0,94,0.00,,,0.00,meteohub,2013-05-05 15:32:00,
2013-05-05 08:37:00,40.1,38.5,29.81,SSE,148,12.0,14.0,94,0.00,,,0.00,meteohub,2013-05-05 15:37:00,
2013-05-05 08:42:00,40.1,38.3,29.81,SSE,162,8.0,17.0,93,0.00,,,0.00,meteohub,2013-05-05 15:42:00,
2013-05-05 08:47:00,40.3,38.7,29.81,ESE,120,9.0,20.0,94,0.00,,,0.00,meteohub,2013-05-05 15:47:00,
2013-05-05 08:52:00,40.5,38.8,29.81,SE,125,9.0,20.0,94,0.00,,,0.00,meteohub,2013-05-05 15:52:00,
2013-05-05 08:57:00,40.6,38.8,29.81,ESE,115,9.0,20.0,93,0.00,,,0.00,meteohub,2013-05-05 15:57:00,
2013-05-05 09:02:00,40.6,38.5,29.81,SE,134,3.0,17.0,92,0.00,,,0.00,meteohub,2013-05-05 16:02:00,
2013-05-05 09:07:00,40.5,38.3,29.82,SSW,192,4.0,17.0,92,0.00,,,0.00,meteohub,2013-05-05 16:07:00,
2013-05-05 09:17:00,39.9,38.1,29.83,SSW,204,9.0,19.0,93,0.00,,,0.00,meteohub,2013-05-05 16:17:00,
2013-05-05 09:22:00,39.9,38.3,29.83,SW,233,5.0,20.0,94,0.00,,,0.00,meteohub,2013-05-05 16:22:00,
2013-05-05 09:27:00,39.7,38.1,29.83,SSE,152,14.0,23.0,94,0.00,,,0.00,meteohub,2013-05-05 16:27:00,
2013-05-05 09:32:00,39.7,38.1,29.83,SE,138,5.0,23.0,94,0.00,,,0.00,meteohub,2013-05-05 16:32:00,
2013-05-05 09:37:00,39.7,38.1,29.83,ESE,104,4.0,20.0,94,0.00,,,0.00,meteohub,2013-05-05 16:37:00,
2013-05-05 09:42:00,39.7,38.1,29.83,South,185,8.0,20.0,94,0.00,,,0.00,meteohub,2013-05-05 16:42:00,
2013-05-05 09:47:00,39.7,38.5,29.83,WSW,243,10.0,23.0,95,0.00,,,0.00,meteohub,2013-05-05 16:47:00,
2013-05-05 09:52:00,39.7,38.5,29.84,East,81,9.0,23.0,95,0.00,,,0.00,meteohub,2013-05-05 16:52:00,
2013-05-05 09:57:00,39.7,38.5,29.84,South,179,12.0,23.0,95,0.00,,,0.00,meteohub,2013-05-05 16:57:00,
2013-05-05 10:02:00,39.6,38.3,29.84,ESE,103,12.0,21.0,95,0.00,,,0.00,meteohub,2013-05-05 17:02:00,
2013-05-05 10:07:00,39.6,38.3,29.85,West,263,7.0,25.0,95,0.00,,,0.00,meteohub,2013-05-05 17:07:00,
2013-05-05 10:12:00,39.9,38.7,29.86,SE,143,7.0,25.0,95,0.00,,,0.00,meteohub,2013-05-05 17:12:00,
2013-05-05 10:17:00,39.9,38.3,29.85,SSW,196,4.0,25.0,94,0.00,,,0.00,meteohub,2013-05-05 17:17:00,
2013-05-05 10:22:00,39.9,38.3,29.85,SW,226,8.0,18.0,94,0.00,,,0.00,meteohub,2013-05-05 17:22:00,
2013-05-05 10:27:00,40.3,38.7,29.86,SSE,167,9.0,21.0,94,0.00,,,0.00,meteohub,2013-05-05 17:27:00,
2013-05-05 10:32:00,41.5,39.4,29.86,SSW,212,5.0,21.0,92,0.00,,,0.00,meteohub,2013-05-05 17:32:00,
2013-05-05 10:37:00,42.4,39.7,29.86,SW,216,7.0,21.0,90,0.00,,,0.00,meteohub,2013-05-05 17:37:00,
2013-05-05 10:42:00,43.3,40.1,29.86,SSE,163,8.0,18.0,88,0.00,,,0.00,meteohub,2013-05-05 17:42:00,
2013-05-05 10:47:00,43.7,39.7,29.86,SE,141,12.0,18.0,86,0.00,,,0.00,meteohub,2013-05-05 17:47:00,
2013-05-05 10:52:00,44.2,40.3,29.86,East,101,6.0,18.0,86,0.00,,,0.00,meteohub,2013-05-05 17:52:00,
2013-05-05 10:57:00,44.6,39.7,29.86,South,176,10.0,17.0,83,0.00,,,0.00,meteohub,2013-05-05 17:57:00,
2013-05-05 11:02:00,45.7,41.2,29.87,SSE,154,3.0,21.0,84,0.00,,,0.00,meteohub,2013-05-05 18:02:00,
2013-05-05 11:07:00,46.0,40.5,29.86,ENE,58,9.0,21.0,81,0.00,,,0.00,meteohub,2013-05-05 18:07:00,
2013-05-05 11:12:00,45.7,40.1,29.87,ESE,122,6.0,21.0,81,0.00,,,0.00,meteohub,2013-05-05 18:12:00,
2013-05-05 11:17:00,46.0,40.5,29.87,SE,145,15.0,21.0,81,0.00,,,0.00,meteohub,2013-05-05 18:17:00,
2013-05-05 11:22:00,46.6,40.5,29.87,ESE,122,6.0,21.0,79,0.00,,,0.00,meteohub,2013-05-05 18:22:00,
2013-05-05 11:27:00,46.0,39.6,29.87,SSW,210,3.0,20.0,78,0.00,,,0.00,meteohub,2013-05-05 18:27:00,
2013-05-05 11:32:00,45.9,40.1,29.87,SSW,204,6.0,20.0,80,0.00,,,0.00,meteohub,2013-05-05 18:32:00,
2013-05-05 11:37:00,45.3,39.6,29.87,SSE,158,13.0,20.0,80,0.00,,,0.00,meteohub,2013-05-05 18:37:00,
2013-05-05 11:42:00,45.0,39.6,29.88,East,85,3.0,20.0,81,0.00,,,0.00,meteohub,2013-05-05 18:42:00,
2013-05-05 11:47:00,45.0,39.7,29.88,SSE,158,3.0,20.0,82,0.00,,,0.00,meteohub,2013-05-05 18:47:00,
2013-05-05 11:52:00,44.8,39.9,29.88,SSE,155,3.0,21.0,83,0.00,,,0.00,meteohub,2013-05-05 18:52:00,
2013-05-05 11:57:00,45.0,40.1,29.88,ESE,115,4.0,21.0,83,0.00,,,0.00,meteohub,2013-05-05 18:57:00,
2013-05-05 12:02:00,45.9,40.6,29.89,ESE,122,3.0,15.0,82,0.00,,,0.00,meteohub,2013-05-05 19:02:00,
2013-05-05 12:07:00,46.6,40.5,29.89,SW,232,9.0,14.0,79,0.00,,,0.00,meteohub,2013-05-05 19:07:00,
2013-05-05 12:12:00,46.6,39.4,29.89,East,79,3.0,18.0,76,0.00,,,0.00,meteohub,2013-05-05 19:12:00,
2013-05-05 12:17:00,45.7,38.8,29.89,East,84,3.0,18.0,77,0.00,,,0.00,meteohub,2013-05-05 19:17:00,
2013-05-05 12:22:00,45.1,39.0,29.90,SW,214,10.0,18.0,79,0.00,,,0.00,meteohub,2013-05-05 19:22:00,
2013-05-05 12:27:00,45.0,39.2,29.90,SE,133,10.0,13.0,80,0.00,,,0.00,meteohub,2013-05-05 19:27:00,
2013-05-05 12:32:00,44.6,39.7,29.91,NE,53,2.0,10.0,83,0.00,,,0.00,meteohub,2013-05-05 19:32:00,
2013-05-05 12:37:00,44.2,39.7,29.91,ESE,120,2.0,10.0,84,0.00,,,0.00,meteohub,2013-05-05 19:37:00,
2013-05-05 12:42:00,44.1,39.9,29.91,South,187,3.0,11.0,85,0.00,,,0.00,meteohub,2013-05-05 19:42:00,
2013-05-05 12:47:00,43.9,39.7,29.90,NE,38,7.0,11.0,85,0.00,,,0.00,meteohub,2013-05-05 19:47:00,
2013-05-05 12:52:00,43.7,39.6,29.91,SSE,159,2.0,11.0,85,0.00,,,0.00,meteohub,2013-05-05 19:52:00,
2013-05-05 12:57:00,43.7,39.2,29.91,East,97,9.0,11.0,84,0.00,,,0.00,meteohub,2013-05-05 19:57:00,
2013-05-05 13:02:00,44.1,39.6,29.91,WSW,252,4.0,12.0,84,0.00,,,0.00,meteohub,2013-05-05 20:02:00,
2013-05-05 13:07:00,44.8,39.9,29.90,South,173,6.0,15.0,83,0.00,,,0.00,meteohub,2013-05-05 20:07:00,
2013-05-05 13:12:00,45.5,40.3,29.90,SSE,163,4.0,15.0,82,0.00,,,0.00,meteohub,2013-05-05 20:12:00,
2013-05-05 13:17:00,45.9,40.1,29.90,South,188,6.0,15.0,80,0.00,,,0.00,meteohub,2013-05-05 20:17:00,
2013-05-05 13:22:00,46.0,40.3,29.90,WSW,249,3.0,14.0,80,0.00,,,0.00,meteohub,2013-05-05 20:22:00,
2013-05-05 13:27:00,46.2,39.7,29.90,South,172,9.0,14.0,78,0.00,,,0.00,meteohub,2013-05-05 20:27:00,
2013-05-05 13:32:00,46.6,39.7,29.91,SSW,212,4.0,15.0,77,0.00,,,0.00,meteohub,2013-05-05 20:32:00,
2013-05-05 13:37:00,46.0,39.2,29.91,SW,217,1.0,15.0,77,0.00,,,0.00,meteohub,2013-05-05 20:37:00,
2013-05-05 13:42:00,46.0,39.2,29.91,ESE,105,5.0,13.0,77,0.00,,,0.00,meteohub,2013-05-05 20:42:00,
2013-05-05 13:47:00,46.6,39.7,29.91,South,190,2.0,14.0,77,0.00,,,0.00,meteohub,2013-05-05 20:47:00,
2013-05-05 13:52:00,46.9,39.7,29.91,SE,135,9.0,14.0,76,0.00,,,0.00,meteohub,2013-05-05 20:52:00,
2013-05-05 13:57:00,46.8,39.6,29.91,SW,226,2.0,14.0,76,0.00,,,0.00,meteohub,2013-05-05 20:57:00,
2013-05-05 14:02:00,46.8,39.6,29.90,ENE,70,5.0,12.0,76,0.00,,,0.00,meteohub,2013-05-05 21:02:00,
2013-05-05 14:07:00,46.8,39.6,29.91,SSE,150,6.0,14.0,76,0.00,,,0.00,meteohub,2013-05-05 21:07:00,
2013-05-05 14:17:00,46.6,39.7,29.91,South,177,2.0,16.0,77,0.00,,,0.00,meteohub,2013-05-05 21:17:00,
2013-05-05 14:22:00,46.4,39.9,29.91,ESE,117,2.0,16.0,78,0.00,,,0.00,meteohub,2013-05-05 21:22:00,
2013-05-05 14:27:00,46.0,39.9,29.91,SE,145,7.0,16.0,79,0.00,,,0.00,meteohub,2013-05-05 21:27:00,
2013-05-05 14:32:00,45.9,40.1,29.91,ENE,71,2.0,14.0,80,0.00,,,0.00,meteohub,2013-05-05 21:32:00,
2013-05-05 14:37:00,45.7,40.1,29.90,SW,222,7.0,14.0,81,0.00,,,0.00,meteohub,2013-05-05 21:37:00,
2013-05-05 14:42:00,45.5,40.1,29.91,SSW,201,6.0,14.0,81,0.00,,,0.00,meteohub,2013-05-05 21:42:00,
2013-05-05 14:47:00,45.3,39.6,29.90,SSE,148,6.0,16.0,80,0.00,,,0.00,meteohub,2013-05-05 21:47:00,
2013-05-05 14:52:00,45.3,39.9,29.90,ESE,120,2.0,16.0,81,0.00,,,0.00,meteohub,2013-05-05 21:52:00,
2013-05-05 14:57:00,45.3,39.9,29.90,South,173,5.0,16.0,81,0.00,,,0.00,meteohub,2013-05-05 21:57:00,
2013-05-05 15:02:00,45.5,40.3,29.90,SE,131,11.0,14.0,82,0.00,,,0.00,meteohub,2013-05-05 22:02:00,
2013-05-05 15:07:00,45.5,40.3,29.90,SSW,201,3.0,12.0,82,0.00,,,0.00,meteohub,2013-05-05 22:07:00,
2013-05-05 15:12:00,45.3,40.5,29.91,SE,139,0.0,12.0,83,0.00,,,0.00,meteohub,2013-05-05 22:12:00,
2013-05-05 15:17:00,45.3,40.5,29.90,East,88,1.0,12.0,83,0.00,,,0.00,meteohub,2013-05-05 22:17:00,
2013-05-05 15:22:00,45.3,40.5,29.89,NE,51,2.0,8.0,83,0.00,,,0.00,meteohub,2013-05-05 22:22:00,
2013-05-05 15:27:00,45.1,40.3,29.89,East,79,5.0,11.0,83,0.00,,,0.00,meteohub,2013-05-05 22:27:00,
2013-05-05 15:32:00,45.3,40.8,29.90,SE,127,1.0,11.0,84,0.00,,,0.00,meteohub,2013-05-05 22:32:00,
2013-05-05 15:37:00,45.1,40.6,29.89,SSE,160,4.0,11.0,84,0.00,,,0.00,meteohub,2013-05-05 22:37:00,
2013-05-05 15:42:00,45.1,40.6,29.90,SE,139,1.0,11.0,84,0.00,,,0.00,meteohub,2013-05-05 22:42:00,
2013-05-05 15:47:00,45.0,40.5,29.90,SW,225,3.0,11.0,84,0.00,,,0.00,meteohub,2013-05-05 22:47:00,
2013-05-05 15:52:00,45.0,40.1,29.90,ESE,110,2.0,11.0,83,0.00,,,0.00,meteohub,2013-05-05 22:52:00,
2013-05-05 15:57:00,45.0,41.0,29.90,SSE,160,2.0,10.0,86,0.00,,,0.00,meteohub,2013-05-05 22:57:00,
2013-05-05 16:02:00,44.6,41.2,29.90,ESE,103,2.0,15.0,88,0.00,,,0.00,meteohub,2013-05-05 23:02:00,
2013-05-05 16:07:00,44.4,41.2,29.90,SSE,158,4.0,15.0,88,0.00,,,0.00,meteohub,2013-05-05 23:07:00,
2013-05-05 16:12:00,44.4,41.4,29.90,ESE,120,4.0,15.0,89,0.00,,,0.00,meteohub,2013-05-05 23:12:00,
2013-05-05 16:17:00,44.2,41.2,29.90,West,274,0.0,12.0,89,0.00,,,0.00,meteohub,2013-05-05 23:17:00,
2013-05-05 16:22:00,44.2,41.5,29.90,East,94,5.0,12.0,90,0.00,,,0.00,meteohub,2013-05-05 23:22:00,
2013-05-05 16:27:00,44.1,41.4,29.90,ENE,65,2.0,14.0,90,0.00,,,0.00,meteohub,2013-05-05 23:27:00,
2013-05-05 16:32:00,43.9,41.2,29.90,ESE,122,0.0,14.0,90,0.00,,,0.00,meteohub,2013-05-05 23:32:00,
2013-05-05 16:37:00,43.7,41.2,29.90,WSW,255,4.0,14.0,91,0.00,,,0.00,meteohub,2013-05-05 23:37:00,
2013-05-05 16:42:00,43.5,41.0,29.90,WNW,295,4.0,13.0,91,0.00,,,0.00,meteohub,2013-05-05 23:42:00,
2013-05-05 16:47:00,43.3,41.2,29.90,NNE,20,2.0,8.0,92,0.00,,,0.00,meteohub,2013-05-05 23:47:00,
2013-05-05 16:52:00,43.2,41.4,29.91,WSW,238,4.0,15.0,93,0.00,,,0.00,meteohub,2013-05-05 23:52:00,
2013-05-05 16:57:00,43.2,41.4,29.90,SSE,158,5.0,15.0,93,0.00,,,0.00,meteohub,2013-05-05 23:57:00,
2013-05-05 17:02:00,43.0,41.2,29.90,SW,226,1.0,15.0,93,0.00,,,0.00,meteohub,2013-05-06 00:02:00,
2013-05-05 17:07:00,43.0,41.2,29.90,West,267,2.0,11.0,93,0.00,,,0.00,meteohub,2013-05-06 00:07:00,
2013-05-05 17:12:00,43.0,41.2,29.91,SW,219,2.0,11.0,93,0.00,,,0.00,meteohub,2013-05-06 00:12:00,
2013-05-05 17:17:00,43.2,41.4,29.91,ENE,57,1.0,12.0,93,0.00,,,0.00,meteohub,2013-05-06 00:17:00,
2013-05-05 17:22:00,43.2,41.5,29.91,SSW,212,2.0,12.0,94,0.00,,,0.00,meteohub,2013-05-06 00:22:00,
2013-05-05 17:27:00,43.2,41.5,29.91,SE,136,6.0,12.0,94,0.00,,,0.00,meteohub,2013-05-06 00:27:00,
2013-05-05 17:32:00,43.0,41.4,29.91,WSW,248,3.0,12.0,94,0.00,,,0.00,meteohub,2013-05-06 00:32:00,
2013-05-05 17:37:00,42.8,41.2,29.91,SSE,158,1.0,11.0,94,0.00,,,0.00,meteohub,2013-05-06 00:37:00,
2013-05-05 17:42:00,42.8,41.2,29.91,SSE,158,1.0,11.0,94,0.00,,,0.00,meteohub,2013-05-06 00:42:00,
2013-05-05 17:47:00,42.6,41.0,29.91,SE,131,11.0,13.0,94,0.00,,,0.00,meteohub,2013-05-06 00:47:00,
2013-05-05 17:52:00,42.6,41.0,29.91,ESE,110,4.0,13.0,94,0.00,,,0.00,meteohub,2013-05-06 00:52:00,
2013-05-05 17:57:00,42.6,41.4,29.91,ENE,72,5.0,13.0,95,0.00,,,0.00,meteohub,2013-05-06 00:57:00,
2013-05-05 18:02:00,42.4,41.2,29.90,WSW,242,5.0,12.0,95,0.00,,,0.00,meteohub,2013-05-06 01:02:00,
2013-05-05 18:07:00,42.4,41.2,29.90,ENE,58,4.0,12.0,95,0.00,,,0.00,meteohub,2013-05-06 01:07:00,
2013-05-05 18:12:00,42.3,41.0,29.89,SE,131,5.0,11.0,95,0.00,,,0.00,meteohub,2013-05-06 01:12:00,
2013-05-05 18:17:00,42.3,41.0,29.89,East,96,4.0,24.0,95,0.00,,,0.00,meteohub,2013-05-06 01:17:00,
2013-05-05 18:22:00,42.3,41.0,29.89,WNW,288,2.0,24.0,95,0.00,,,0.00,meteohub,2013-05-06 01:22:00,
2013-05-05 18:27:00,42.3,41.2,29.90,SSE,165,6.0,24.0,96,0.00,,,0.00,meteohub,2013-05-06 01:27:00,
2013-05-05 18:32:00,42.3,41.2,29.89,South,180,6.0,20.0,96,0.00,,,0.00,meteohub,2013-05-06 01:32:00,
2013-05-05 18:37:00,42.1,40.8,29.89,ESE,117,9.0,20.0,95,0.00,,,0.00,meteohub,2013-05-06 01:37:00,
2013-05-05 18:42:00,42.1,41.0,29.89,SSW,197,6.0,20.0,96,0.00,,,0.00,meteohub,2013-05-06 01:42:00,
2013-05-05 18:47:00,42.1,41.0,29.89,ESE,115,12.0,18.0,96,0.00,,,0.00,meteohub,2013-05-06 01:47:00,
2013-05-05 18:52:00,42.1,41.0,29.89,SW,229,8.0,20.0,96,0.00,,,0.00,meteohub,2013-05-06 01:52:00,
2013-05-05 18:57:00,41.9,40.8,29.89,SE,129,10.0,20.0,96,0.00,,,0.00,meteohub,2013-05-06 01:57:00,
2013-05-05 19:02:00,41.7,40.6,29.89,South,188,6.0,20.0,96,0.00,,,0.00,meteohub,2013-05-06 02:02:00,
2013-05-05 19:07:00,41.7,40.6,29.90,SW,230,2.0,27.0,96,0.00,,,0.00,meteohub,2013-05-06 02:07:00,
2013-05-05 19:12:00,41.5,40.5,29.90,ESE,110,5.0,27.0,96,0.00,,,0.00,meteohub,2013-05-06 02:12:00,
2013-05-05 19:17:00,41.4,40.3,29.90,NNW,342,7.0,27.0,96,0.00,,,0.00,meteohub,2013-05-06 02:17:00,
2013-05-05 19:22:00,41.4,40.3,29.91,SE,132,6.0,16.0,96,0.00,,,0.00,meteohub,2013-05-06 02:22:00,
2013-05-05 19:27:00,41.2,40.1,29.91,South,170,7.0,21.0,96,0.00,,,0.00,meteohub,2013-05-06 02:27:00,
2013-05-05 19:32:00,41.2,40.1,29.91,SSE,167,4.0,21.0,96,0.00,,,0.00,meteohub,2013-05-06 02:32:00,
2013-05-05 19:37:00,41.2,40.1,29.91,SW,235,12.0,21.0,96,0.00,,,0.00,meteohub,2013-05-06 02:37:00,
2013-05-05 19:42:00,41.2,40.1,29.91,ESE,122,10.0,20.0,96,0.00,,,0.00,meteohub,2013-05-06 02:42:00,
2013-05-05 19:47:00,41.0,39.9,29.91,SSE,158,6.0,20.0,96,0.00,,,0.00,meteohub,2013-05-06 02:47:00,
2013-05-05 19:52:00,40.8,39.7,29.92,SE,134,5.0,20.0,96,0.00,,,0.00,meteohub,2013-05-06 02:52:00,
2013-05-05 19:57:00,40.8,39.7,29.91,SSE,165,10.0,20.0,96,0.00,,,0.00,meteohub,2013-05-06 02:57:00,
2013-05-05 20:02:00,40.6,39.6,29.92,SW,231,4.0,24.0,96,0.00,,,0.00,meteohub,2013-05-06 03:02:00,
2013-05-05 20:12:00,40.6,39.9,29.92,WSW,238,7.0,24.0,97,0.00,,,0.00,meteohub,2013-05-06 03:12:00,
2013-05-05 20:17:00,40.6,39.9,29.92,SSW,194,7.0,21.0,97,0.00,,,0.00,meteohub,2013-05-06 03:17:00,
2013-05-05 20:22:00,40.6,39.9,29.92,WSW,248,5.0,21.0,97,0.00,,,0.00,meteohub,2013-05-06 03:22:00,
2013-05-05 20:27:00,40.6,39.9,29.92,SE,127,3.0,18.0,97,0.00,,,0.00,meteohub,2013-05-06 03:27:00,
2013-05-05 20:32:00,40.6,39.9,29.92,SE,145,6.0,18.0,97,0.00,,,0.00,meteohub,2013-05-06 03:32:00,
2013-05-05 20:42:00,40.5,39.7,29.92,South,181,4.0,18.0,97,0.00,,,0.00,meteohub,2013-05-06 03:42:00,
2013-05-05 20:47:00,40.5,39.7,29.91,WNW,294,10.0,18.0,97,0.00,,,0.00,meteohub,2013-05-06 03:47:00,
2013-05-05 20:52:00,40.5,39.7,29.92,SSW,212,10.0,18.0,97,0.00,,,0.00,meteohub,2013-05-06 03:52:00,
2013-05-05 20:57:00,40.5,39.7,29.92,SSE,149,10.0,27.0,97,0.00,,,0.00,meteohub,2013-05-06 03:57:00,
2013-05-05 21:02:00,40.5,39.7,29.93,ESE,121,5.0,27.0,97,0.00,,,0.00,meteohub,2013-05-06 04:02:00,
2013-05-05 21:07:00,40.5,39.7,29.93,SE,131,13.0,20.0,97,0.00,,,0.00,meteohub,2013-05-06 04:07:00,
2013-05-05 21:12:00,40.6,39.9,29.92,ESE,115,4.0,24.0,97,0.00,,,0.00,meteohub,2013-05-06 04:12:00,
2013-05-05 21:17:00,40.5,39.7,29.93,WSW,256,7.0,24.0,97,0.00,,,0.00,meteohub,2013-05-06 04:17:00,
2013-05-05 21:22:00,40.5,39.7,29.93,SSW,200,7.0,23.0,97,0.00,,,0.00,meteohub,2013-05-06 04:22:00,
2013-05-05 21:27:00,40.5,39.7,29.93,South,187,5.0,22.0,97,0.00,,,0.00,meteohub,2013-05-06 04:27:00,
2013-05-05 21:32:00,40.5,39.7,29.93,SSE,165,11.0,22.0,97,0.00,,,0.00,meteohub,2013-05-06 04:32:00,
2013-05-05 21:37:00,40.5,39.7,29.94,SE,131,2.0,22.0,97,0.00,,,0.00,meteohub,2013-05-06 04:37:00,
2013-05-05 21:42:00,40.5,39.7,29.93,SSW,197,9.0,22.0,97,0.00,,,0.00,meteohub,2013-05-06 04:42:00,
2013-05-05 21:47:00,40.5,39.7,29.93,South,169,9.0,20.0,97,0.00,,,0.00,meteohub,2013-05-06 04:47:00,
2013-05-05 21:52:00,40.5,39.7,29.94,SSE,165,8.0,18.0,97,0.00,,,0.00,meteohub,2013-05-06 04:52:00,
2013-05-05 21:57:00,40.5,39.7,29.93,ENE,65,7.0,18.0,97,0.00,,,0.00,meteohub,2013-05-06 04:57:00,
2013-05-05 22:02:00,40.5,39.7,29.93,SSE,165,7.0,21.0,97,0.00,,,0.00,meteohub,2013-05-06 05:02:00,
2013-05-05 22:07:00,40.6,39.9,29.94,SSW,196,7.0,21.0,97,0.00,,,0.00,meteohub,2013-05-06 05:07:00,
2013-05-05 22:12:00,40.6,39.9,29.94,SE,141,17.0,21.0,97,0.00,,,0.00,meteohub,2013-05-06 05:12:00,
2013-05-05 22:17:00,40.6,39.9,29.94,WSW,252,4.0,23.0,97,0.00,,,0.00,meteohub,2013-05-06 05:17:00,
2013-05-05 22:22:00,40.6,39.9,29.94,SE,136,3.0,23.0,97,0.00,,,0.00,meteohub,2013-05-06 05:22:00,
2013-05-05 22:27:00,40.6,39.9,29.94,ESE,122,5.0,23.0,97,0.00,,,0.00,meteohub,2013-05-06 05:27:00,
2013-05-05 22:32:00,40.6,39.9,29.94,SE,127,7.0,18.0,97,0.00,,,0.00,meteohub,2013-05-06 05:32:00,
2013-05-05 22:37:00,40.5,39.7,29.94,SSE,165,6.0,14.0,97,0.00,,,0.00,meteohub,2013-05-06 05:37:00,
2013-05-05 22:42:00,40.5,39.7,29.94,South,186,5.0,17.0,97,0.00,,,0.00,meteohub,2013-05-06 05:42:00,
2013-05-05 22:47:00,40.5,39.7,29.94,SE,141,4.0,17.0,97,0.00,,,0.00,meteohub,2013-05-06 05:47:00,
2013-05-05 22:52:00,40.6,39.9,29.94,SE,128,6.0,17.0,97,0.00,,,0.00,meteohub,2013-05-06 05:52:00,
2013-05-05 22:57:00,40.6,39.9,29.94,West,277,20.0,20.0,97,0.00,,,0.00,meteohub,2013-05-06 05:57:00,
2013-05-05 23:02:00,40.5,39.7,29.94,South,177,8.0,20.0,97,0.00,,,0.00,meteohub,2013-05-06 06:02:00,
2013-05-05 23:07:00,40.6,39.9,29.94,SSE,165,9.0,20.0,97,0.00,,,0.00,meteohub,2013-05-06 06:07:00,
2013-05-05 23:12:00,40.5,39.7,29.94,SSE,150,7.0,20.0,97,0.00,,,0.00,meteohub,2013-05-06 06:12:00,
2013-05-05 23:17:00,40.5,39.7,29.93,NNW,341,3.0,18.0,97,0.00,,,0.00,meteohub,2013-05-06 06:17:00,
2013-05-05 23:22:00,40.5,39.7,29.93,SE,133,12.0,20.0,97,0.00,,,0.00,meteohub,2013-05-06 06:22:00,
2013-05-05 23:27:00,40.5,39.7,29.93,WNW,297,6.0,20.0,97,0.00,,,0.00,meteohub,2013-05-06 06:27:00,
2013-05-05 23:32:00,40.5,39.7,29.93,SSW,211,8.0,23.0,97,0.00,,,0.00,meteohub,2013-05-06 06:32:00,
2013-05-05 23:37:00,40.5,39.7,29.94,SW,222,8.0,23.0,97,0.00,,,0.00,meteohub,2013-05-06 06:37:00,
2013-05-05 23:42:00,40.5,39.7,29.93,SSE,160,6.0,23.0,97,0.01,,,0.01,meteohub,2013-05-06 06:42:00,
2013-05-05 23:47:00,40.3,39.6,29.93,South,169,4.0,20.0,97,0.01,,,0.01,meteohub,2013-05-06 06:47:00,
2013-05-05 23:52:00,40.5,39.7,29.93,SSE,153,10.0,20.0,97,0.01,,,0.01,meteohub,2013-05-06 06:52:00,
2013-05-05 23:57:00,40.3,39.6,29.94,SSW,204,8.0,17.0,97,0.02,,,0.02,meteohub,2013-05-06 06:57:00,